Dendermonde, Belgium
Current Conditions -  °F | °C
As of 7:50 AM on Monday 24 Nov 2014 (Local Time) from EBAW Reporting Station
Light Fog Light Fog  
Wind Chill:   Ceiling: Unl
Heat Index:   Visibility: 6mi
Dew Point:   Wind: 2mph
Humidity: 87%   Direction: 190°S
Pressure: 30.24"   Gusts: NA
Location:  51.03°N, 4.1°E
Report Text: EBAW 240650Z 19002KT 9999 MIFG FEW033 07/05 Q1024 NOSIG
Loading
Personal Weather Stations






























Interactive Weather Map New forecast layout! Learn more

10-Day Weather Forecast

Advertisements
Track Severe Weather on mobile